createdAt,value
2019-03-20T00:01:43.982Z,3.33
2019-03-20T00:04:51.377Z,3.40
2019-03-20T00:07:58.584Z,3.48
2019-03-20T00:11:05.902Z,3.58
2019-03-20T00:14:22.540Z,3.51
2019-03-20T00:17:29.887Z,3.48
2019-03-20T00:20:46.642Z,3.48
2019-03-20T00:23:53.775Z,3.51
2019-03-20T00:27:00.988Z,3.54
2019-03-20T00:30:09.488Z,3.51
2019-03-20T00:33:15.515Z,3.47
2019-03-20T00:36:32.208Z,3.65
2019-03-20T00:39:49.273Z,3.58
2019-03-20T00:43:05.885Z,3.62
2019-03-20T00:46:13.099Z,3.61
2019-03-20T00:49:29.825Z,3.56
2019-03-20T00:52:37.019Z,3.47
2019-03-20T00:55:53.697Z,3.56
2019-03-20T00:59:00.991Z,3.55
2019-03-20T01:02:08.460Z,3.54
2019-03-20T01:05:15.201Z,3.43
2019-03-20T01:08:22.601Z,3.56
2019-03-20T01:11:39.328Z,3.50
2019-03-20T01:14:46.632Z,3.41
2019-03-20T01:18:03.249Z,3.43
2019-03-20T01:21:09.891Z,3.42
2019-03-20T01:24:17.224Z,3.43
2019-03-20T01:27:24.803Z,3.42
2019-03-20T01:30:36.497Z,3.43
2019-03-20T01:33:43.657Z,3.37
2019-03-20T01:36:51.183Z,3.42
2019-03-20T01:39:58.432Z,3.39
2019-03-20T01:43:06.103Z,3.44
2019-03-20T01:46:22.455Z,3.47
2019-03-20T01:49:29.579Z,3.44
2019-03-20T01:52:36.820Z,3.41
2019-03-20T01:55:44.021Z,3.47
2019-03-20T01:58:51.817Z,3.53
2019-03-20T02:01:59.049Z,3.53
2019-03-20T02:05:06.485Z,3.52
2019-03-20T02:08:13.618Z,3.49
2019-03-20T02:11:20.955Z,3.53
2019-03-20T02:14:28.093Z,3.44
2019-03-20T02:17:35.395Z,3.53
2019-03-20T02:20:42.627Z,3.56
2019-03-20T02:23:49.870Z,3.61
2019-03-20T02:26:57.574Z,3.60
2019-03-20T02:30:05.636Z,3.52
2019-03-20T02:33:12.774Z,3.49
2019-03-20T02:36:20.286Z,3.48
2019-03-20T02:39:26.434Z,3.49
2019-03-20T02:42:33.673Z,3.53
2019-03-20T02:45:40.864Z,3.58
2019-03-20T02:48:48.000Z,3.57
2019-03-20T02:51:55.314Z,3.57
2019-03-20T02:55:02.456Z,3.60
2019-03-20T02:58:09.658Z,3.64
2019-03-20T03:01:16.986Z,3.56
2019-03-20T03:04:34.045Z,3.61
2019-03-20T03:07:41.332Z,3.53
2019-03-20T03:10:48.566Z,3.44
2019-03-20T03:14:05.371Z,3.54
2019-03-20T03:17:22.096Z,3.53
2019-03-20T03:20:29.331Z,3.44
2019-03-20T03:23:36.459Z,3.47
2019-03-20T03:26:43.862Z,3.46
2019-03-20T03:30:00.659Z,3.48
2019-03-20T03:33:17.363Z,3.49
2019-03-20T03:36:24.462Z,3.44
2019-03-20T03:39:31.710Z,3.55
2019-03-20T03:42:39.234Z,3.61
2019-03-20T03:45:55.693Z,3.62
2019-03-20T03:49:01.805Z,3.63
2019-03-20T03:52:18.343Z,3.67
2019-03-20T03:55:34.910Z,3.59
2019-03-20T03:58:42.126Z,3.48
2019-03-20T04:01:49.257Z,3.60
2019-03-20T04:04:56.399Z,3.58
2019-03-20T04:08:03.600Z,3.61
2019-03-20T04:11:10.849Z,3.58
2019-03-20T04:14:18.154Z,3.57
2019-03-20T04:17:26.967Z,3.56
2019-03-20T04:20:34.071Z,3.64
2019-03-20T04:23:41.591Z,3.65
2019-03-20T04:26:58.106Z,3.64
2019-03-20T04:30:14.884Z,3.73
2019-03-20T04:33:22.037Z,3.71
2019-03-20T04:36:27.638Z,3.75
2019-03-20T04:39:34.780Z,3.77
2019-03-20T04:42:42.005Z,3.77
2019-03-20T04:45:49.134Z,3.74
2019-03-20T04:48:56.370Z,3.79
2019-03-20T04:52:03.632Z,3.83
2019-03-20T04:55:11.214Z,3.73
2019-03-20T04:58:27.592Z,3.89
2019-03-20T05:01:34.834Z,3.82
2019-03-20T05:04:42.067Z,3.79
2019-03-20T05:07:58.766Z,3.70
2019-03-20T05:11:05.977Z,3.79
2019-03-20T05:14:13.229Z,3.85
2019-03-20T05:17:20.431Z,3.82
2019-03-20T05:20:27.564Z,3.83
2019-03-20T05:23:34.877Z,3.83
2019-03-20T05:26:51.551Z,3.87
2019-03-20T05:29:58.671Z,3.79
2019-03-20T05:33:05.915Z,3.84
2019-03-20T05:36:13.083Z,3.67
2019-03-20T05:39:20.215Z,3.72
2019-03-20T05:42:27.466Z,3.81
2019-03-20T05:45:34.603Z,3.67
2019-03-20T05:48:41.943Z,3.71
2019-03-20T05:51:49.080Z,3.77
2019-03-20T05:54:56.324Z,3.63
2019-03-20T05:58:03.461Z,3.84
2019-03-20T06:01:10.700Z,3.76
2019-03-20T06:04:17.906Z,3.74
2019-03-20T06:07:25.047Z,3.74
2019-03-20T06:10:32.179Z,3.64
2019-03-20T06:13:39.327Z,3.72
2019-03-20T06:16:46.471Z,3.78
2019-03-20T06:19:53.639Z,3.83
2019-03-20T06:23:00.772Z,3.70
2019-03-20T06:26:07.998Z,3.85
2019-03-20T06:29:15.248Z,3.86
2019-03-20T06:32:22.487Z,3.85
2019-03-20T06:35:29.733Z,4.04
2019-03-20T06:38:36.994Z,4.10
2019-03-20T06:41:44.195Z,4.14
2019-03-20T06:44:51.500Z,4.08
2019-03-20T06:47:58.807Z,4.20
2019-03-20T06:51:06.019Z,4.22
2019-03-20T06:54:13.161Z,4.24
2019-03-20T06:57:20.463Z,4.42
2019-03-20T07:00:50.670Z,4.49
2019-03-20T07:04:29.924Z,4.63
2019-03-20T07:07:44.076Z,4.79
2019-03-20T07:11:06.356Z,4.72
2019-03-20T07:14:13.001Z,5.02
2019-03-20T07:17:20.250Z,5.10
2019-03-20T07:20:27.400Z,5.23
2019-03-20T07:23:34.643Z,5.11
2019-03-20T07:26:41.883Z,5.14
2019-03-20T07:29:47.511Z,5.29
2019-03-20T07:33:04.372Z,5.61
2019-03-20T07:36:11.785Z,5.70
2019-03-20T07:39:28.358Z,5.79
2019-03-20T07:42:35.563Z,5.76
2019-03-20T07:45:42.775Z,5.77
2019-03-20T07:48:49.937Z,6.07
2019-03-20T07:51:57.472Z,6.13
2019-03-20T07:55:13.934Z,6.08
2019-03-20T07:58:21.144Z,6.05
2019-03-20T08:01:37.837Z,6.35
2019-03-20T08:04:44.981Z,6.20
2019-03-20T08:07:52.115Z,6.24
2019-03-20T08:10:59.431Z,6.46
2019-03-20T08:14:06.730Z,6.58
2019-03-20T08:17:13.880Z,6.63
2019-03-20T08:20:21.261Z,6.79
2019-03-20T08:23:37.838Z,6.86
2019-03-20T08:26:45.077Z,7.07
2019-03-20T08:29:52.211Z,6.93
2019-03-20T08:32:59.465Z,7.08
2019-03-20T08:36:06.864Z,7.24
2019-03-20T08:39:23.393Z,7.39
2019-03-20T08:42:30.611Z,7.35
2019-03-20T08:45:37.935Z,7.38
2019-03-20T08:48:54.652Z,7.42
2019-03-20T08:52:11.365Z,7.44
2019-03-20T08:55:18.705Z,7.44
2019-03-20T08:58:35.401Z,7.53
2019-03-20T09:01:42.537Z,7.68
2019-03-20T09:04:49.779Z,7.57
2019-03-20T09:07:56.921Z,7.62
2019-03-20T09:11:04.156Z,7.71
2019-03-20T09:14:11.381Z,7.84
2019-03-20T09:17:18.607Z,7.75
2019-03-20T09:20:25.839Z,7.93
2019-03-20T09:23:32.974Z,7.93
2019-03-20T09:26:40.212Z,7.84
2019-03-20T09:29:47.340Z,7.83
2019-03-20T09:32:55.044Z,7.99
2019-03-20T09:36:02.345Z,8.04
2019-03-20T09:39:09.683Z,8.03
2019-03-20T09:42:16.840Z,7.98
2019-03-20T09:45:24.227Z,8.21
2019-03-20T09:48:31.454Z,8.12
2019-03-20T09:51:38.662Z,8.26
2019-03-20T09:54:45.902Z,8.40
2019-03-20T09:57:53.127Z,8.27
2019-03-20T10:01:00.289Z,8.27
2019-03-20T10:04:07.433Z,8.42
2019-03-20T10:07:14.699Z,8.58
2019-03-20T10:10:22.446Z,8.66
2019-03-20T10:13:29.672Z,8.69
2019-03-20T10:16:36.807Z,8.88
2019-03-20T10:19:44.212Z,8.69
2019-03-20T10:23:01.102Z,8.86
2019-03-20T10:26:08.353Z,8.86
2019-03-20T10:29:15.475Z,9.00
2019-03-20T10:32:22.622Z,9.08
2019-03-20T10:35:29.879Z,8.99
2019-03-20T10:38:37.159Z,9.00
2019-03-20T10:41:44.342Z,9.02
2019-03-20T10:44:51.591Z,8.86
2019-03-20T10:47:58.716Z,8.88
2019-03-20T10:51:06.050Z,8.96
2019-03-20T10:54:22.710Z,8.99
2019-03-20T10:57:29.960Z,9.06
2019-03-20T11:00:37.219Z,8.91
2019-03-20T11:03:54.172Z,9.03
2019-03-20T11:07:10.766Z,9.03
2019-03-20T11:10:19.347Z,9.10
2019-03-20T11:13:26.661Z,8.95
2019-03-20T11:16:33.797Z,9.06
2019-03-20T11:19:40.935Z,9.11
2019-03-20T11:22:48.460Z,9.12
2019-03-20T11:26:05.165Z,9.12
2019-03-20T11:29:12.269Z,9.07
2019-03-20T11:32:19.403Z,9.20
2019-03-20T11:35:26.714Z,9.07
2019-03-20T11:38:33.998Z,9.21
2019-03-20T11:41:41.175Z,9.14
2019-03-20T11:44:57.842Z,9.21
2019-03-20T11:48:05.357Z,9.26
2019-03-20T11:51:21.821Z,9.27
2019-03-20T11:54:29.060Z,9.34
2019-03-20T11:57:36.224Z,9.31
2019-03-20T12:00:43.463Z,9.36
2019-03-20T12:03:50.668Z,9.39
2019-03-20T12:06:57.918Z,9.25
2019-03-20T12:10:06.179Z,9.37
2019-03-20T12:13:13.375Z,9.44
2019-03-20T12:16:20.661Z,9.47
2019-03-20T12:19:27.893Z,9.50
2019-03-20T12:22:35.155Z,9.47
2019-03-20T12:25:42.421Z,9.36
2019-03-20T12:28:49.572Z,9.25
2019-03-20T12:31:56.710Z,9.29
2019-03-20T12:35:04.324Z,9.22
2019-03-20T12:38:21.004Z,9.24
2019-03-20T12:41:28.246Z,9.33
2019-03-20T12:44:35.457Z,9.18
2019-03-20T12:47:42.675Z,9.28
2019-03-20T12:50:59.386Z,9.33
2019-03-20T12:54:06.703Z,9.28
2019-03-20T12:57:23.366Z,9.34
2019-03-20T13:00:30.583Z,9.24
2019-03-20T13:03:37.885Z,9.19
2019-03-20T13:06:54.602Z,9.34
2019-03-20T13:10:13.322Z,9.25
2019-03-20T13:13:29.690Z,9.38
2019-03-20T13:16:36.825Z,9.28
2019-03-20T13:19:44.088Z,9.26
2019-03-20T13:22:54.493Z,9.30
2019-03-20T13:26:01.604Z,9.32
2019-03-20T13:29:08.938Z,9.40
2019-03-20T13:32:16.160Z,9.29
2019-03-20T13:35:32.868Z,9.39
2019-03-20T13:38:40.011Z,9.35
2019-03-20T13:41:47.216Z,9.35
2019-03-20T13:44:54.354Z,9.58
2019-03-20T13:48:01.498Z,9.65
2019-03-20T13:51:08.641Z,9.63
2019-03-20T13:54:15.881Z,9.51
2019-03-20T13:57:23.126Z,9.59
2019-03-20T14:00:30.445Z,9.66
2019-03-20T14:03:37.658Z,9.63
2019-03-20T14:06:44.904Z,9.57
2019-03-20T14:09:51.008Z,9.67
2019-03-20T14:13:07.335Z,9.73
2019-03-20T14:16:24.092Z,9.68
2019-03-20T14:19:31.317Z,9.67
2019-03-20T14:22:38.496Z,9.50
2019-03-20T14:25:55.225Z,9.56
2019-03-20T14:29:02.452Z,9.66
2019-03-20T14:32:19.188Z,9.61
2019-03-20T14:35:35.983Z,9.61
2019-03-20T14:38:43.331Z,9.57
2019-03-20T14:42:00.015Z,9.59
2019-03-20T14:45:09.275Z,9.56
2019-03-20T14:48:25.614Z,9.53
2019-03-20T14:51:42.325Z,9.48
2019-03-20T14:54:49.580Z,9.50
2019-03-20T14:57:56.790Z,9.50
2019-03-20T15:01:13.753Z,9.61
2019-03-20T15:04:20.408Z,9.55
2019-03-20T15:07:27.669Z,9.52
2019-03-20T15:10:34.819Z,9.51
2019-03-20T15:13:41.976Z,9.49
2019-03-20T15:16:49.309Z,9.44
2019-03-20T15:19:56.457Z,9.48
2019-03-20T15:23:03.997Z,9.45
2019-03-20T15:26:11.152Z,9.41
2019-03-20T15:29:27.884Z,9.50
2019-03-20T15:32:35.043Z,9.54
2019-03-20T15:35:51.952Z,9.50
2019-03-20T15:39:08.834Z,9.56
2019-03-20T15:42:25.539Z,9.41
2019-03-20T15:45:32.765Z,9.50
2019-03-20T15:48:39.944Z,9.52
2019-03-20T15:51:56.626Z,9.54
2019-03-20T15:55:04.244Z,9.44
2019-03-20T15:58:20.694Z,9.49
2019-03-20T16:01:37.533Z,9.55
2019-03-20T16:04:44.898Z,9.55
2019-03-20T16:08:01.356Z,9.51
2019-03-20T16:11:08.578Z,9.56
2019-03-20T16:14:15.724Z,9.58
2019-03-20T16:17:32.579Z,9.60
2019-03-20T16:20:39.874Z,9.65
2019-03-20T16:23:56.590Z,9.68
2019-03-20T16:27:03.929Z,9.50
2019-03-20T16:30:21.625Z,9.57
2019-03-20T16:33:28.784Z,9.56
2019-03-20T16:36:36.109Z,9.44
2019-03-20T16:39:43.364Z,9.43
2019-03-20T16:42:50.784Z,9.48
2019-03-20T16:45:57.964Z,9.38
2019-03-20T16:49:05.340Z,9.40
2019-03-20T16:52:12.494Z,9.33
2019-03-20T16:55:19.709Z,9.49
2019-03-20T16:58:36.583Z,9.37
2019-03-20T17:01:53.297Z,9.32
2019-03-20T17:05:00.658Z,9.20
2019-03-20T17:08:17.280Z,9.31
2019-03-20T17:11:34.497Z,9.20
2019-03-20T17:14:42.865Z,9.36
2019-03-20T17:17:50.355Z,9.27
2019-03-20T17:21:07.065Z,9.19
2019-03-20T17:24:14.226Z,9.25
2019-03-20T17:27:21.549Z,9.13
2019-03-20T17:30:38.475Z,9.27
2019-03-20T17:33:55.032Z,9.20
2019-03-20T17:37:12.283Z,9.28
2019-03-20T17:40:29.079Z,9.29
2019-03-20T17:43:45.785Z,9.28
2019-03-20T17:46:52.922Z,9.16
2019-03-20T17:50:00.325Z,9.16
2019-03-20T17:53:16.999Z,9.26
2019-03-20T17:56:24.190Z,9.24
2019-03-20T17:59:31.306Z,9.10
2019-03-20T18:02:38.497Z,9.20
2019-03-20T18:05:45.822Z,9.14
2019-03-20T18:09:02.566Z,9.18
2019-03-20T18:12:19.347Z,9.24
2019-03-20T18:15:26.630Z,9.17
2019-03-20T18:18:34.198Z,9.28
2019-03-20T18:21:50.552Z,9.20
2019-03-20T18:24:57.825Z,9.18
2019-03-20T18:28:14.638Z,9.27
2019-03-20T18:31:31.571Z,9.31
2019-03-20T18:34:48.211Z,9.21
2019-03-20T18:38:05.619Z,9.31
2019-03-20T18:41:13.041Z,9.20
2019-03-20T18:44:20.193Z,9.32
2019-03-20T18:47:27.791Z,9.20
2019-03-20T18:50:34.969Z,9.18
2019-03-20T18:53:42.119Z,9.33
2019-03-20T18:56:49.345Z,9.26
2019-03-20T18:59:56.570Z,9.26
2019-03-20T19:03:04.605Z,9.38
2019-03-20T19:06:15.461Z,9.37
2019-03-20T19:09:22.774Z,9.22
2019-03-20T19:12:29.945Z,9.28
2019-03-20T19:15:37.150Z,9.37
2019-03-20T19:18:54.375Z,9.33
2019-03-20T19:22:01.597Z,9.36
2019-03-20T19:25:09.960Z,9.27
2019-03-20T19:28:17.019Z,9.28
2019-03-20T19:31:24.224Z,9.21
2019-03-20T19:34:31.505Z,9.26
2019-03-20T19:37:38.782Z,9.36
2019-03-20T19:40:45.511Z,9.35
2019-03-20T19:43:53.186Z,9.39
2019-03-20T19:47:00.452Z,9.14
2019-03-20T19:50:09.873Z,9.28
2019-03-20T19:53:26.436Z,9.35
2019-03-20T19:56:33.595Z,9.30
2019-03-20T19:59:40.851Z,9.27
2019-03-20T20:02:57.946Z,9.25
2019-03-20T20:06:05.375Z,9.24
2019-03-20T20:09:12.583Z,9.34
2019-03-20T20:12:30.642Z,9.34
2019-03-20T20:15:29.198Z,9.37
2019-03-20T20:18:36.478Z,9.29
2019-03-20T20:21:43.717Z,9.34
2019-03-20T20:24:50.978Z,9.43
2019-03-20T20:27:58.548Z,9.42
2019-03-20T20:31:15.186Z,9.29
2019-03-20T20:34:22.395Z,9.35
2019-03-20T20:37:39.500Z,9.32
2019-03-20T20:40:55.888Z,9.23
2019-03-20T20:44:03.107Z,9.26
2019-03-20T20:47:10.354Z,9.25
2019-03-20T20:50:17.454Z,9.21
2019-03-20T20:53:24.662Z,9.26
2019-03-20T20:56:41.467Z,9.27
2019-03-20T20:59:48.719Z,9.34
2019-03-20T21:02:55.934Z,9.19
2019-03-20T21:06:03.449Z,9.37
2019-03-20T21:09:19.911Z,9.38
2019-03-20T21:12:36.703Z,9.35
2019-03-20T21:15:57.276Z,9.42
2019-03-20T21:19:35.767Z,9.27
2019-03-20T21:23:26.326Z,9.26
2019-03-20T21:26:35.413Z,9.32
2019-03-20T21:30:06.758Z,9.34
2019-03-20T21:33:36.826Z,9.23
2019-03-20T21:37:20.809Z,9.37
2019-03-20T21:40:28.782Z,9.14
2019-03-20T21:43:56.305Z,9.33
2019-03-20T21:47:39.283Z,9.35
2019-03-20T21:51:16.032Z,9.39
2019-03-20T21:55:04.237Z,9.21
2019-03-20T21:58:19.973Z,9.19
2019-03-20T22:02:23.597Z,9.33
2019-03-20T22:06:13.763Z,9.20
2019-03-20T22:09:56.387Z,9.20
2019-03-20T22:13:39.930Z,9.34
2019-03-20T22:17:20.443Z,9.21
2019-03-20T22:20:55.588Z,9.15
2019-03-20T22:24:52.336Z,9.25
2019-03-20T22:28:52.184Z,9.29
2019-03-20T22:32:50.867Z,9.26
2019-03-20T22:36:02.914Z,9.27
2019-03-20T22:40:06.929Z,9.23
2019-03-20T22:43:30.417Z,9.23
2019-03-20T22:47:29.309Z,9.26
2019-03-20T22:50:43.493Z,9.19
2019-03-20T22:54:50.991Z,9.21
2019-03-20T22:58:30.829Z,9.25
2019-03-20T23:01:59.673Z,9.25
2019-03-20T23:05:08.775Z,9.20
2019-03-20T23:08:25.908Z,9.28
2019-03-20T23:11:33.659Z,9.26
2019-03-20T23:14:41.433Z,9.19
2019-03-20T23:17:49.164Z,9.19
2019-03-20T23:20:57.025Z,9.20
2019-03-20T23:24:04.849Z,9.12
2019-03-20T23:27:29.973Z,9.33
2019-03-20T23:30:37.678Z,9.10
2019-03-20T23:33:45.377Z,9.28
2019-03-20T23:37:02.625Z,9.18
2019-03-20T23:40:19.452Z,9.34
2019-03-20T23:43:27.609Z,9.27
2019-03-20T23:46:35.709Z,9.31
2019-03-20T23:49:43.414Z,9.23
2019-03-20T23:52:51.060Z,9.29
2019-03-20T23:56:08.296Z,9.36
2019-03-20T23:59:16.260Z,9.12
